createdAt,value
2023-02-14T12:29:50.996Z,103088.16
2023-02-14T12:32:36.734Z,103091.22
2023-02-14T12:35:29.540Z,103094.06
2023-02-14T12:38:41.489Z,103086.50
2023-02-14T12:42:00.012Z,103077.91
2023-02-14T12:45:13.670Z,103074.47
2023-02-14T12:48:39.742Z,103077.78
2023-02-14T12:51:28.903Z,103075.13
2023-02-14T12:54:26.366Z,103061.81
2023-02-14T12:57:37.196Z,103064.88
2023-02-14T13:00:53.566Z,103054.34
2023-02-14T13:04:06.252Z,103056.25
2023-02-14T13:07:29.315Z,103045.34
2023-02-14T13:10:40.842Z,103060.00
2023-02-14T13:14:04.607Z,103048.47
2023-02-14T13:17:12.708Z,103037.56
2023-02-14T13:20:35.880Z,103021.44
2023-02-14T13:23:33.573Z,103020.78
2023-02-14T13:26:22.790Z,103015.88
2023-02-14T13:29:16.297Z,103032.09
2023-02-14T13:32:03.208Z,103017.63
2023-02-14T13:34:49.964Z,103001.81
2023-02-14T13:37:36.908Z,103006.09
2023-02-14T13:40:25.581Z,103005.25
2023-02-14T13:43:11.184Z,103003.06
2023-02-14T13:45:56.690Z,103001.06
2023-02-14T13:48:43.132Z,102989.94
2023-02-14T13:51:43.742Z,103001.34
2023-02-14T13:54:55.294Z,103003.72
2023-02-14T13:57:41.621Z,102993.47
2023-02-14T14:00:38.966Z,102998.44
2023-02-14T14:03:27.708Z,102992.97
2023-02-14T14:06:13.728Z,102996.56
2023-02-14T14:08:59.506Z,102998.31
2023-02-14T14:11:51.036Z,102987.91
2023-02-14T14:14:36.952Z,102962.22
2023-02-14T14:17:26.007Z,102971.16
2023-02-14T14:20:20.587Z,102981.28
2023-02-14T14:23:28.163Z,102976.53
2023-02-14T14:26:48.969Z,102972.78
2023-02-14T14:29:36.009Z,102969.72
2023-02-14T14:32:27.194Z,102973.38
2023-02-14T14:35:12.673Z,102969.44
2023-02-14T14:38:01.248Z,102964.81
2023-02-14T14:40:47.897Z,102963.28
2023-02-14T14:43:39.507Z,102970.03
2023-02-14T14:46:25.233Z,102969.00
2023-02-14T14:49:12.173Z,102969.72
2023-02-14T14:51:58.010Z,102975.09
2023-02-14T14:54:43.656Z,102959.91
2023-02-14T14:57:28.911Z,102961.94
2023-02-14T15:00:22.588Z,102955.50
2023-02-14T15:03:11.554Z,102963.28
2023-02-14T15:06:17.870Z,102963.88
2023-02-14T15:09:23.116Z,102954.69
2023-02-14T15:12:29.200Z,102957.06
2023-02-14T15:15:17.761Z,102949.16
2023-02-14T15:18:07.543Z,102950.56
2023-02-14T15:20:53.669Z,102943.31
2023-02-14T15:23:39.032Z,102942.63
2023-02-14T15:26:29.461Z,102946.56
2023-02-14T15:29:41.297Z,102949.72
2023-02-14T15:32:31.304Z,102947.53
2023-02-14T15:35:21.807Z,102943.44
2023-02-14T15:38:11.436Z,102953.69
2023-02-14T15:40:59.378Z,102941.41
2023-02-14T15:43:51.988Z,102940.56
2023-02-14T15:46:39.502Z,102932.97
2023-02-14T15:49:33.252Z,102929.91
2023-02-14T15:52:18.702Z,102938.00
2023-02-14T15:55:09.302Z,102938.34
2023-02-14T15:58:05.966Z,102933.47
2023-02-14T16:00:53.363Z,102946.88
2023-02-14T16:03:43.564Z,102941.47
2023-02-14T16:06:38.907Z,102941.75
2023-02-14T16:09:30.308Z,102941.97
2023-02-14T16:12:34.266Z,102933.25
2023-02-14T16:15:22.386Z,102943.75
2023-02-14T16:18:35.921Z,102932.59
2023-02-14T16:21:32.051Z,102944.94
2023-02-14T16:24:17.679Z,102928.56
2023-02-14T16:27:06.791Z,102939.19
2023-02-14T16:29:52.180Z,102928.00
2023-02-14T16:32:38.284Z,102938.50
2023-02-14T16:35:24.578Z,102937.59
2023-02-14T16:38:16.519Z,102931.63
2023-02-14T16:41:03.239Z,102949.19
2023-02-14T16:43:49.309Z,102950.13
2023-02-14T16:46:36.022Z,102945.75
2023-02-14T16:49:22.935Z,102949.31
2023-02-14T16:52:17.473Z,102942.41
2023-02-14T16:55:03.140Z,102941.63
2023-02-14T16:57:50.768Z,102943.34
2023-02-14T17:00:36.435Z,102947.75
2023-02-14T17:03:22.192Z,102946.88
2023-02-14T17:06:08.071Z,102949.47
2023-02-14T17:08:55.040Z,102947.75
2023-02-14T17:11:45.075Z,102958.25
2023-02-14T17:14:36.872Z,102953.00
2023-02-14T17:17:22.501Z,102947.81
2023-02-14T17:20:08.684Z,102945.22
2023-02-14T17:22:55.387Z,102941.72
2023-02-14T17:25:40.773Z,102940.84
2023-02-14T17:28:26.543Z,102941.72
2023-02-14T17:31:12.896Z,102945.19
2023-02-14T17:33:58.855Z,102939.97
2023-02-14T17:36:44.454Z,102940.00
2023-02-14T17:39:30.280Z,102943.47
2023-02-14T17:42:15.950Z,102948.66
2023-02-14T17:45:01.845Z,102941.72
2023-02-14T17:47:47.335Z,102937.34
2023-02-14T17:50:33.024Z,102941.72
2023-02-14T17:53:18.469Z,102939.94
2023-02-14T17:56:12.601Z,102935.59
2023-02-14T17:58:57.959Z,102940.81
2023-02-14T18:01:43.664Z,102931.25
2023-02-14T18:04:33.439Z,102934.69
2023-02-14T18:07:18.885Z,102931.19
2023-02-14T18:10:05.100Z,102932.03
2023-02-14T18:12:50.725Z,102941.63
2023-02-14T18:15:36.363Z,102938.13
2023-02-14T18:18:21.714Z,102932.78
2023-02-14T18:21:10.329Z,102945.84
2023-02-14T18:23:59.683Z,102946.66
2023-02-14T18:26:45.917Z,102942.25
2023-02-14T18:29:31.852Z,102928.38
2023-02-14T18:32:17.410Z,102930.94
2023-02-14T18:35:03.766Z,102934.31
2023-02-14T18:37:49.058Z,102928.25
2023-02-14T18:40:35.271Z,102932.59
2023-02-14T18:43:21.031Z,102915.13
2023-02-14T18:46:09.025Z,102929.00
2023-02-14T18:48:56.588Z,102933.31
2023-02-14T18:51:43.550Z,102927.94
2023-02-14T18:54:29.658Z,102923.53
2023-02-14T18:57:15.507Z,102920.81
2023-02-14T19:00:06.297Z,102912.97
2023-02-14T19:02:51.891Z,102918.16
2023-02-14T19:05:38.193Z,102907.75
2023-02-14T19:08:23.521Z,102898.06
2023-02-14T19:11:23.376Z,102909.25
2023-02-14T19:14:10.253Z,102904.97
2023-02-14T19:16:55.877Z,102915.38
2023-02-14T19:19:41.616Z,102904.91
2023-02-14T19:22:26.899Z,102902.31
2023-02-14T19:25:12.478Z,102897.00
2023-02-14T19:27:58.308Z,102896.22
2023-02-14T19:30:43.736Z,102890.97
2023-02-14T19:33:29.376Z,102902.25
2023-02-14T19:36:17.866Z,102891.69
2023-02-14T19:39:04.098Z,102894.06
2023-02-14T19:41:50.510Z,102897.53
2023-02-14T19:44:36.507Z,102882.03
2023-02-14T19:47:33.421Z,102884.59
2023-02-14T19:50:25.622Z,102885.47
2023-02-14T19:53:11.260Z,102887.97
2023-02-14T19:55:56.735Z,102878.41
2023-02-14T19:58:42.536Z,102885.09
2023-02-14T20:01:36.838Z,102875.53
2023-02-14T20:04:28.010Z,102879.75
2023-02-14T20:07:13.595Z,102875.44
2023-02-14T20:09:59.126Z,102875.34
2023-02-14T20:12:44.784Z,102874.31
2023-02-14T20:15:31.221Z,102871.66
2023-02-14T20:18:16.808Z,102865.66
2023-02-14T20:21:02.591Z,102842.81
2023-02-14T20:23:48.385Z,102856.63
2023-02-14T20:26:36.237Z,102849.91
2023-02-14T20:29:23.401Z,102849.09
2023-02-14T20:32:09.409Z,102844.78
2023-02-14T20:34:54.836Z,102842.03
2023-02-14T20:37:40.323Z,102850.44
2023-02-14T20:40:25.994Z,102834.00
2023-02-14T20:43:11.494Z,102840.06
2023-02-14T20:46:01.749Z,102840.72
2023-02-14T20:48:48.071Z,102837.69
2023-02-14T20:51:34.848Z,102828.75
2023-02-14T20:54:22.602Z,102836.50
2023-02-14T20:57:08.148Z,102827.88
2023-02-14T20:59:53.616Z,102834.06
2023-02-14T21:02:39.059Z,102841.78
2023-02-14T21:05:24.618Z,102840.19
2023-02-14T21:08:10.117Z,102834.22
2023-02-14T21:10:55.609Z,102837.03
2023-02-14T21:13:41.541Z,102838.78
2023-02-14T21:16:28.656Z,102834.44
2023-02-14T21:19:14.342Z,102837.81
2023-02-14T21:21:59.611Z,102821.34
2023-02-14T21:24:45.291Z,102828.22
2023-02-14T21:27:30.904Z,102807.13
2023-02-14T21:30:16.677Z,102824.38
2023-02-14T21:33:02.463Z,102820.97
2023-02-14T21:35:48.096Z,102814.81
2023-02-14T21:38:34.265Z,102813.81
2023-02-14T21:41:22.557Z,102815.34
2023-02-14T21:44:07.884Z,102812.00
2023-02-14T21:46:53.289Z,102797.31
2023-02-14T21:49:57.463Z,102790.81
2023-02-14T21:52:43.001Z,102799.53
2023-02-14T21:55:28.583Z,102802.91
2023-02-14T21:58:14.097Z,102806.34
2023-02-14T22:00:59.728Z,102803.75
2023-02-14T22:03:45.779Z,102795.75
2023-02-14T22:06:31.191Z,102808.38
2023-02-14T22:09:18.599Z,102802.88
2023-02-14T22:12:04.044Z,102801.19
2023-02-14T22:14:49.352Z,102791.66
2023-02-14T22:17:35.624Z,102796.06
2023-02-14T22:20:21.011Z,102785.44
2023-02-14T22:23:06.851Z,102788.81
2023-02-14T22:25:52.452Z,102787.84
2023-02-14T22:28:38.788Z,102786.69
2023-02-14T22:31:26.497Z,102781.59
2023-02-14T22:34:14.924Z,102784.56
2023-02-14T22:37:00.557Z,102762.84
2023-02-14T22:39:46.032Z,102776.72
2023-02-14T22:42:31.460Z,102778.66
2023-02-14T22:45:17.081Z,102766.78
2023-02-14T22:48:02.577Z,102765.34
2023-02-14T22:50:48.119Z,102764.75
2023-02-14T22:53:33.591Z,102761.09
2023-02-14T22:56:24.959Z,102765.56
2023-02-14T22:59:21.928Z,102762.66
2023-02-14T23:02:09.653Z,102756.41
2023-02-14T23:04:57.206Z,102750.44
2023-02-14T23:07:42.866Z,102764.16
2023-02-14T23:10:28.538Z,102745.81
2023-02-14T23:13:32.467Z,102746.56
2023-02-14T23:16:36.513Z,102749.88
2023-02-14T23:19:45.891Z,102745.66
2023-02-14T23:22:34.896Z,102752.28
2023-02-14T23:25:20.553Z,102753.53
2023-02-14T23:28:05.936Z,102731.94
2023-02-14T23:30:51.703Z,102747.53
2023-02-14T23:33:37.442Z,102740.59
2023-02-14T23:36:23.041Z,102744.06
2023-02-14T23:39:08.592Z,102732.16
2023-02-14T23:41:54.189Z,102728.56
2023-02-14T23:44:40.136Z,102728.69
2023-02-14T23:47:25.795Z,102721.84
2023-02-14T23:50:11.158Z,102718.34
2023-02-14T23:52:56.542Z,102730.50
2023-02-14T23:55:42.144Z,102731.25
2023-02-14T23:58:27.734Z,102724.16
